Time;durP1;ratioP1;P1;durP2;ratioP2;P2;SDS_P1;SDS_P2;PMS_P1;PMS_P2;Temp;Humidity;BMP_temperature;BMP_pressure;BME280_temperature;BME280_humidity;BME280_pressure;Samples;Min_cycle;Max_cycle;Signal;HPM_P1;HPM_P2
2021/07/12 00:00:28;;;;;;;0.20;0.20;;;;;;;12.92;95.53;95488.69;5010449;28;20228;-68
2021/07/12 00:02:57;;;;;;;0.20;0.20;;;;;;;12.89;95.45;95494.38;4983383;28;20244;-69
2021/07/12 00:05:26;;;;;;;1.43;0.40;;;;;;;12.86;95.28;95486.84;4994451;28;20223;-69
2021/07/12 00:07:56;;;;;;;0.20;0.20;;;;;;;12.86;95.36;95478.91;4991542;28;20244;-69
2021/07/12 00:10:26;;;;;;;0.23;0.23;;;;;;;12.84;95.21;95475.66;4998717;28;20230;-69
2021/07/12 00:12:54;;;;;;;0.10;0.10;;;;;;;12.82;95.29;95474.00;5004184;28;20314;-68
2021/07/12 00:15:24;;;;;;;0.50;0.50;;;;;;;12.81;95.43;95472.38;4975233;28;20298;-68
2021/07/12 00:17:52;;;;;;;0.10;0.10;;;;;;;12.79;95.52;95463.00;4980245;28;20343;-69
2021/07/12 00:20:22;;;;;;;0.17;0.17;;;;;;;12.78;95.24;95461.38;4992372;28;20235;-69
2021/07/12 00:22:53;;;;;;;0.10;0.10;;;;;;;12.73;95.27;95469.94;4992596;28;20307;-69
2021/07/12 00:25:23;;;;;;;0.10;0.10;;;;;;;12.69;95.32;95468.69;4996407;28;20893;-69
2021/07/12 00:27:52;;;;;;;0.10;0.10;;;;;;;12.66;95.15;95466.44;5000904;28;20263;-69
2021/07/12 00:30:22;;;;;;;0.40;0.40;;;;;;;12.63;95.30;95458.91;4998534;28;20314;-69
2021/07/12 00:32:53;;;;;;;0.20;0.20;;;;;;;12.57;95.56;95465.00;4990706;28;20616;-68
2021/07/12 00:35:21;;;;;;;0.20;0.20;;;;;;;12.39;94.90;95451.53;4991427;28;20672;-69
2021/07/12 00:37:51;;;;;;;0.10;0.10;;;;;;;12.39;95.04;95454.19;4986191;28;20224;-69
2021/07/12 00:40:20;;;;;;;0.30;0.30;;;;;;;12.37;95.03;95448.28;4993138;28;20279;-69
2021/07/12 00:42:51;;;;;;;0.20;0.20;;;;;;;12.36;95.24;95451.94;4988128;28;22194;-69
2021/07/12 00:45:21;;;;;;;1.27;0.20;;;;;;;12.37;95.40;95438.50;5004645;28;20623;-68
2021/07/12 00:47:51;;;;;;;0.30;0.30;;;;;;;12.39;95.81;95435.66;5004866;28;20225;-69
2021/07/12 00:50:21;;;;;;;0.20;0.20;;;;;;;12.40;95.97;95442.56;4986442;28;20330;-69
2021/07/12 00:52:51;;;;;;;0.10;0.10;;;;;;;12.37;95.74;95432.41;5003182;28;20300;-69
2021/07/12 00:55:22;;;;;;;0.20;0.20;;;;;;;12.35;95.68;95437.09;5001452;28;20602;-69
2021/07/12 00:57:56;;;;;;;0.50;0.10;;;;;;;12.34;95.96;95422.19;5009878;28;20277;-69
2021/07/12 01:00:27;;;;;;;0.20;0.20;;;;;;;12.32;95.75;95418.94;5013623;28;20219;-69
2021/07/12 01:02:57;;;;;;;0.40;0.40;;;;;;;12.33;96.13;95417.91;4997514;28;20258;-69
2021/07/12 01:05:28;;;;;;;0.70;0.60;;;;;;;12.30;96.35;95411.22;5004290;28;20642;-69
2021/07/12 01:07:59;;;;;;;0.30;0.20;;;;;;;12.28;96.08;95417.72;4988386;28;20659;-69
2021/07/12 01:10:29;;;;;;;0.40;0.40;;;;;;;12.28;96.26;95407.13;4986289;28;20650;-69
2021/07/12 01:13:29;;;;;;;0.33;0.33;;;;;;;12.28;96.33;95410.59;5006651;28;20232;-69
2021/07/12 01:16:07;;;;;;;1.17;1.17;;;;;;;12.28;96.45;95412.44;4990796;28;20246;-69
2021/07/12 01:18:45;;;;;;;0.20;0.20;;;;;;;12.29;96.60;95412.22;4998415;28;20636;-69
2021/07/12 01:21:53;;;;;;;0.50;0.50;;;;;;;12.29;96.65;95408.78;4995830;28;20251;-69
2021/07/12 01:25:02;;;;;;;2.03;0.60;;;;;;;12.31;96.71;95404.09;4994841;28;20306;-69
2021/07/12 01:27:54;;;;;;;0.80;0.73;;;;;;;12.35;96.92;95397.41;5004722;28;20653;-69
2021/07/12 01:30:34;;;;;;;2.13;1.87;;;;;;;12.38;97.10;95404.91;4991993;28;20328;-69
2021/07/12 01:33:11;;;;;;;1.33;1.00;;;;;;;12.40;97.56;95400.22;5006298;28;20243;-68
2021/07/12 01:35:53;;;;;;;0.97;0.97;;;;;;;12.41;97.89;95396.56;4999636;28;20227;-68
2021/07/12 01:38:39;;;;;;;0.70;0.70;;;;;;;12.36;97.98;95396.38;5002509;28;20228;-68
2021/07/12 01:41:20;;;;;;;0.90;0.90;;;;;;;12.35;97.94;95387.63;4993937;28;20620;-68
2021/07/12 01:43:57;;;;;;;0.40;0.40;;;;;;;12.36;98.08;95388.44;4984763;28;20287;-68
2021/07/12 01:46:32;;;;;;;0.70;0.50;;;;;;;12.39;98.03;95380.91;4988881;28;20722;-69
2021/07/12 01:49:12;;;;;;;16.40;2.67;;;;;;;12.42;98.13;95372.53;5007271;28;20271;-68
2021/07/12 01:51:53;;;;;;;0.50;0.50;;;;;;;12.45;98.08;95374.00;5003235;28;20529;-69
2021/07/12 01:54:30;;;;;;;0.97;0.97;;;;;;;12.46;98.27;95367.69;4992420;28;20713;-68
2021/07/12 01:57:06;;;;;;;0.70;0.70;;;;;;;12.50;98.47;95366.25;4992769;28;20609;-68
2021/07/12 01:59:41;;;;;;;0.80;0.80;;;;;;;12.53;98.46;95360.56;5018560;28;20225;-69
2021/07/12 02:02:14;;;;;;;0.87;0.87;;;;;;;12.55;98.63;95363.81;4992544;28;20517;-69
2021/07/12 02:04:55;;;;;;;0.87;0.20;;;;;;;12.56;98.54;95362.78;4980648;28;20257;-70
2021/07/12 02:07:25;;;;;;;0.30;0.30;;;;;;;12.57;98.69;95353.84;4990472;28;20235;-69
2021/07/12 02:09:54;;;;;;;0.30;0.30;;;;;;;12.59;98.80;95354.44;5000024;28;20777;-69
2021/07/12 02:12:24;;;;;;;1.30;0.67;;;;;;;12.62;98.62;95359.34;4998611;28;20216;-69
2021/07/12 02:14:53;;;;;;;0.30;0.23;;;;;;;12.65;98.65;95356.28;5003821;28;20249;-69
2021/07/12 02:17:23;;;;;;;0.50;0.50;;;;;;;12.68;98.77;95350.56;4992773;28;20501;-68
2021/07/12 02:20:03;;;;;;;0.70;0.70;;;;;;;12.69;98.66;95346.09;4995247;28;20227;-69
2021/07/12 02:22:35;;;;;;;0.33;0.33;;;;;;;12.70;98.60;95348.53;4998552;28;20275;-69
2021/07/12 02:25:16;;;;;;;0.43;0.40;;;;;;;12.70;98.65;95359.13;4993766;28;20216;-68
2021/07/12 02:27:45;;;;;;;0.30;0.30;;;;;;;12.72;98.60;95351.81;4987405;28;20397;-68
2021/07/12 02:30:16;;;;;;;0.97;0.97;;;;;;;12.68;98.35;95355.88;4994057;28;20220;-69
2021/07/12 02:32:47;;;;;;;0.40;0.40;;;;;;;12.65;98.25;95364.22;4985781;28;20216;-69
2021/07/12 02:35:18;;;;;;;1.13;0.50;;;;;;;12.62;98.11;95369.94;4985877;28;20235;-69
2021/07/12 02:37:48;;;;;;;0.40;0.40;;;;;;;12.59;97.89;95370.31;5008644;28;20785;-68
2021/07/12 02:40:20;;;;;;;0.33;0.33;;;;;;;12.55;97.89;95366.47;4993339;28;20251;-69
2021/07/12 02:42:52;;;;;;;0.27;0.23;;;;;;;12.53;97.85;95365.88;4990528;28;20717;-68
2021/07/12 02:45:24;;;;;;;0.70;0.70;;;;;;;12.51;97.30;95370.53;4990173;28;20257;-68
2021/07/12 02:47:54;;;;;;;0.50;0.50;;;;;;;12.45;97.13;95358.13;5000474;28;20216;-67
2021/07/12 02:50:27;;;;;;;0.67;0.30;;;;;;;12.40;97.27;95363.19;4990267;28;20425;-69
2021/07/12 02:53:01;;;;;;;0.20;0.20;;;;;;;12.37;97.38;95366.25;5011561;28;20723;-69
2021/07/12 02:55:30;;;;;;;0.60;0.40;;;;;;;12.34;97.21;95363.97;4993309;28;20247;-68
2021/07/12 02:57:59;;;;;;;1.43;0.43;;;;;;;12.28;97.20;95370.91;4994616;28;20223;-69
2021/07/12 03:00:27;;;;;;;0.63;0.57;;;;;;;12.32;96.97;95369.47;4987384;28;20227;-68
2021/07/12 03:02:56;;;;;;;0.43;0.43;;;;;;;12.29;96.69;95371.72;4996979;28;20717;-68
2021/07/12 03:05:26;;;;;;;0.47;0.47;;;;;;;12.24;96.58;95367.84;4994988;28;20635;-66
2021/07/12 03:08:02;;;;;;;0.40;0.40;;;;;;;12.23;96.97;95371.50;4997920;28;20574;-67
2021/07/12 03:10:31;;;;;;;0.40;0.40;;;;;;;12.22;97.13;95377.00;4995038;28;20256;-66
2021/07/12 03:13:04;;;;;;;2.30;0.40;;;;;;;12.21;96.96;95381.47;4999411;28;20746;-66
2021/07/12 03:15:39;;;;;;;0.43;0.43;;;;;;;12.21;96.95;95383.31;4982978;28;20243;-67
2021/07/12 03:18:16;;;;;;;0.50;0.20;;;;;;;12.19;97.13;95375.56;4989242;28;20234;-66
2021/07/12 03:20:48;;;;;;;0.50;0.50;;;;;;;12.18;96.78;95360.72;4992357;28;20303;-67
2021/07/12 03:23:18;;;;;;;0.23;0.20;;;;;;;12.17;97.45;95366.22;5015904;28;20213;-67
2021/07/12 03:25:51;;;;;;;0.30;0.30;;;;;;;12.16;97.06;95368.06;4998057;28;20236;-66
2021/07/12 03:28:21;;;;;;;0.60;0.60;;;;;;;12.17;97.18;95359.09;5015741;28;20295;-67
2021/07/12 03:30:50;;;;;;;0.67;0.67;;;;;;;12.03;97.82;95365.38;4992450;28;20234;-67
2021/07/12 03:33:21;;;;;;;0.70;0.50;;;;;;;11.98;98.45;95359.88;4993064;28;21021;-66
2021/07/12 03:35:54;;;;;;;0.40;0.40;;;;;;;12.04;98.47;95360.88;4993833;28;20228;-66
2021/07/12 03:38:24;;;;;;;0.40;0.40;;;;;;;12.00;98.19;95360.47;4993913;28;20575;-66
2021/07/12 03:40:53;;;;;;;0.30;0.30;;;;;;;12.08;98.29;95355.00;5000181;28;20749;-66
2021/07/12 03:43:24;;;;;;;0.20;0.20;;;;;;;12.12;97.88;95345.66;5005875;28;20244;-66
2021/07/12 03:45:55;;;;;;;0.40;0.40;;;;;;;12.11;97.65;95345.84;4993790;28;20228;-67
2021/07/12 03:48:37;;;;;;;0.40;0.40;;;;;;;12.13;97.99;95341.16;4991411;28;20229;-66
2021/07/12 03:51:10;;;;;;;0.20;0.20;;;;;;;12.19;97.67;95345.66;5003923;28;20227;-66
2021/07/12 03:53:41;;;;;;;0.60;0.60;;;;;;;12.20;97.60;95348.09;4994386;28;20239;-66
2021/07/12 03:56:09;;;;;;;0.20;0.20;;;;;;;12.19;97.49;95343.84;4987116;28;20327;-66
2021/07/12 03:58:38;;;;;;;0.30;0.30;;;;;;;12.19;97.52;95349.13;4996510;28;20256;-66
2021/07/12 04:01:06;;;;;;;0.20;0.20;;;;;;;12.21;97.70;95344.44;5003938;28;20484;-66
2021/07/12 04:03:34;;;;;;;0.33;0.33;;;;;;;12.26;97.59;95345.69;4990422;28;20240;-66
2021/07/12 04:06:07;;;;;;;0.30;0.30;;;;;;;12.23;97.53;95347.69;5008087;28;20696;-66
2021/07/12 04:08:36;;;;;;;0.20;0.20;;;;;;;12.26;97.58;95345.69;4991775;28;20272;-65
2021/07/12 04:11:05;;;;;;;0.63;0.40;;;;;;;12.22;97.44;95340.78;4993613;28;20311;-66
2021/07/12 04:13:32;;;;;;;0.40;0.40;;;;;;;12.23;97.33;95347.69;4992051;28;20282;-67
2021/07/12 04:16:00;;;;;;;0.47;0.47;;;;;;;12.24;97.15;95349.31;5005469;28;20278;-67
2021/07/12 04:18:29;;;;;;;0.70;0.70;;;;;;;12.21;97.19;95341.78;4999844;28;20262;-66
2021/07/12 04:20:57;;;;;;;1.40;1.30;;;;;;;12.23;97.35;95339.75;4996745;28;20666;-66
2021/07/12 04:23:26;;;;;;;0.40;0.40;;;;;;;12.22;97.27;95343.41;5000281;28;20235;-65
2021/07/12 04:25:56;;;;;;;0.40;0.40;;;;;;;12.26;97.34;95324.53;4994543;28;20236;-66
2021/07/12 04:28:24;;;;;;;0.37;0.37;;;;;;;12.30;97.69;95331.03;4997996;28;20266;-65
2021/07/12 04:30:51;;;;;;;0.70;0.70;;;;;;;12.39;97.60;95327.16;4999896;28;20240;-66
2021/07/12 04:33:19;;;;;;;0.63;0.63;;;;;;;12.35;97.36;95328.59;4987885;28;20315;-66
2021/07/12 04:35:49;;;;;;;1.47;0.70;;;;;;;12.41;97.70;95325.13;4982905;28;20307;-66
2021/07/12 04:38:18;;;;;;;0.70;0.70;;;;;;;12.42;97.88;95318.81;4989015;28;20763;-66
2021/07/12 04:40:46;;;;;;;0.70;0.70;;;;;;;12.52;98.07;95319.22;4989954;28;20351;-66
2021/07/12 04:43:17;;;;;;;0.70;0.60;;;;;;;12.62;98.28;95324.09;4993581;28;20215;-66
2021/07/12 04:45:45;;;;;;;0.77;0.77;;;;;;;12.71;98.55;95318.41;5008527;28;20271;-66
2021/07/12 04:48:13;;;;;;;0.97;0.97;;;;;;;12.80;98.41;95314.53;4994893;28;20224;-66
2021/07/12 04:50:41;;;;;;;1.03;0.87;;;;;;;12.89;98.21;95319.59;4995949;28;20763;-66
2021/07/12 04:53:10;;;;;;;0.70;0.60;;;;;;;12.97;98.06;95316.72;4997121;28;20316;-66
2021/07/12 04:55:38;;;;;;;0.60;0.60;;;;;;;13.00;97.70;95308.38;4975110;28;20862;-66
2021/07/12 04:58:07;;;;;;;0.30;0.30;;;;;;;13.07;97.78;95309.16;5004904;28;20244;-66
2021/07/12 05:00:38;;;;;;;0.60;0.60;;;;;;;13.14;97.67;95304.66;4994837;28;20862;-65
2021/07/12 05:03:06;;;;;;;0.60;0.53;;;;;;;13.20;97.46;95311.00;4991135;28;20474;-66
2021/07/12 05:05:34;;;;;;;0.57;0.50;;;;;;;13.10;97.15;95303.47;4990866;28;20270;-67
2021/07/12 05:08:04;;;;;;;0.60;0.60;;;;;;;13.07;97.43;95301.22;4993828;28;20269;-66
2021/07/12 05:10:32;;;;;;;0.60;0.60;;;;;;;13.15;97.40;95308.94;4991125;28;20237;-66
2021/07/12 05:13:00;;;;;;;0.83;0.50;;;;;;;13.17;97.36;95306.91;5015013;28;20642;-66
2021/07/12 05:15:28;;;;;;;1.13;1.13;;;;;;;13.23;97.44;95316.69;4995652;28;20266;-66
2021/07/12 05:17:58;;;;;;;0.40;0.40;;;;;;;13.26;97.28;95316.28;4999121;28;20319;-66
2021/07/12 05:20:26;;;;;;;0.50;0.50;;;;;;;13.33;97.30;95317.06;4983612;28;20247;-66
2021/07/12 05:22:54;;;;;;;0.97;0.97;;;;;;;13.42;97.10;95324.78;5006227;28;20240;-66
2021/07/12 05:25:22;;;;;;;0.60;0.60;;;;;;;13.44;96.52;95320.09;4992964;28;20315;-66
2021/07/12 05:27:51;;;;;;;0.77;0.77;;;;;;;13.58;96.65;95321.66;4996994;28;20993;-67
2021/07/12 05:30:20;;;;;;;0.60;0.60;;;;;;;13.64;95.91;95320.84;5009476;28;20714;-66
2021/07/12 05:32:48;;;;;;;0.93;0.93;;;;;;;13.75;95.74;95320.16;5002680;28;20250;-66
2021/07/12 05:35:18;;;;;;;0.43;0.43;;;;;;;13.75;95.51;95314.84;4997411;28;20287;-66
2021/07/12 05:37:45;;;;;;;0.50;0.50;;;;;;;13.79;95.62;95324.00;4999981;28;20343;-66
2021/07/12 05:40:14;;;;;;;0.50;0.50;;;;;;;13.84;95.81;95318.91;4995497;28;20246;-67
2021/07/12 05:42:42;;;;;;;0.70;0.70;;;;;;;13.97;95.86;95314.53;4998990;28;20667;-66
2021/07/12 05:45:10;;;;;;;0.90;0.77;;;;;;;14.05;95.73;95314.28;5016771;28;20246;-66
2021/07/12 05:47:38;;;;;;;0.60;0.57;;;;;;;14.11;95.57;95311.59;4996873;28;20419;-67
2021/07/12 05:50:10;;;;;;;0.63;0.63;;;;;;;14.22;95.49;95316.22;5002857;28;20307;-65
2021/07/12 05:52:40;;;;;;;0.60;0.60;;;;;;;14.30;94.61;95312.47;5005458;28;20797;-66
2021/07/12 05:55:10;;;;;;;0.57;0.57;;;;;;;14.32;94.46;95299.81;4999333;28;20552;-66
2021/07/12 05:57:38;;;;;;;0.50;0.50;;;;;;;14.43;95.03;95299.09;4992261;28;20232;-66
2021/07/12 06:00:08;;;;;;;0.43;0.43;;;;;;;14.60;94.77;95303.91;5008627;28;20816;-66
2021/07/12 06:02:43;;;;;;;0.50;0.50;;;;;;;14.73;94.58;95309.13;4992663;28;20216;-66
2021/07/12 06:05:12;;;;;;;0.90;0.90;;;;;;;14.79;94.29;95306.38;4995596;28;20319;-66
2021/07/12 06:07:42;;;;;;;0.33;0.33;;;;;;;14.86;93.71;95306.31;5003097;28;20766;-66
2021/07/12 06:10:12;;;;;;;1.00;1.00;;;;;;;14.95;93.67;95299.69;4993932;28;20234;-67
2021/07/12 06:12:40;;;;;;;0.77;0.77;;;;;;;15.12;93.23;95309.75;5000373;28;20244;-67
2021/07/12 06:15:10;;;;;;;0.70;0.70;;;;;;;15.31;92.80;95308.72;5002115;28;20259;-67
2021/07/12 06:17:38;;;;;;;0.77;0.77;;;;;;;15.51;92.17;95309.31;5000925;28;20267;-66
2021/07/12 06:20:08;;;;;;;1.20;1.10;;;;;;;15.60;91.71;95304.50;5002388;28;20270;-66
2021/07/12 06:22:36;;;;;;;0.67;0.67;;;;;;;15.68;91.64;95308.75;5000475;28;20571;-67
2021/07/12 06:25:07;;;;;;;1.30;1.20;;;;;;;15.73;90.57;95311.56;5015663;28;20220;-66
2021/07/12 06:27:35;;;;;;;3.23;3.10;;;;;;;15.80;90.53;95306.94;4991009;28;20212;-66
2021/07/12 06:30:05;;;;;;;1.57;1.57;;;;;;;15.83;89.54;95309.16;4996937;28;20227;-66
2021/07/12 06:32:34;;;;;;;1.70;1.60;;;;;;;15.90;90.54;95307.22;4997523;28;20216;-66
2021/07/12 06:35:02;;;;;;;2.97;2.77;;;;;;;16.00;90.21;95310.16;4985836;28;20212;-65
2021/07/12 06:37:31;;;;;;;1.40;1.30;;;;;;;16.06;89.65;95301.25;4991422;28;20236;-65
2021/07/12 06:39:59;;;;;;;1.07;0.97;;;;;;;16.13;89.81;95290.53;5005440;28;20239;-66
2021/07/12 06:42:28;;;;;;;0.90;0.70;;;;;;;16.28;90.59;95292.78;4994122;28;20319;-66
2021/07/12 06:44:58;;;;;;;1.73;1.63;;;;;;;16.37;91.16;95280.75;5000237;28;20701;-65
2021/07/12 06:47:26;;;;;;;1.23;0.73;;;;;;;16.46;90.73;95284.69;4999772;28;20234;-66
2021/07/12 06:50:00;;;;;;;0.87;0.83;;;;;;;16.69;90.40;95279.41;5008106;28;20227;-66
2021/07/12 06:52:28;;;;;;;0.70;0.70;;;;;;;16.99;90.64;95278.47;5014790;28;20928;-66
2021/07/12 06:54:56;;;;;;;1.47;1.37;;;;;;;17.24;89.86;95276.38;5012038;28;20301;-66
2021/07/12 06:57:24;;;;;;;1.20;1.20;;;;;;;17.33;88.94;95268.81;4987306;28;20234;-66
2021/07/12 06:59:56;;;;;;;1.43;1.33;;;;;;;17.47;88.14;95269.38;4998394;28;20495;-66
2021/07/12 07:02:24;;;;;;;1.40;1.40;;;;;;;17.59;87.43;95278.16;4985722;28;20228;-67
2021/07/12 07:05:05;;;;;;;1.10;1.10;;;;;;;17.64;86.67;95275.56;5006495;28;20242;-67
2021/07/12 07:07:33;;;;;;;1.77;1.67;;;;;;;17.67;85.74;95275.09;5004454;28;20333;-66
2021/07/12 07:10:04;;;;;;;0.83;0.83;;;;;;;17.88;86.48;95271.78;5005398;28;20324;-67
2021/07/12 07:12:34;;;;;;;1.27;1.17;;;;;;;18.16;84.83;95273.63;5029030;28;20329;-66
2021/07/12 07:15:05;;;;;;;1.70;1.60;;;;;;;18.10;83.68;95271.09;5020524;28;20751;-66
2021/07/12 07:17:33;;;;;;;2.07;1.97;;;;;;;18.15;84.17;95261.34;5019720;28;20303;-67
2021/07/12 07:20:01;;;;;;;1.30;1.30;;;;;;;18.24;83.83;95259.09;5005856;28;20231;-67
2021/07/12 07:22:29;;;;;;;1.43;1.40;;;;;;;18.16;83.60;95251.47;5009690;28;20306;-67
2021/07/12 07:24:57;;;;;;;1.10;1.10;;;;;;;18.16;83.82;95246.13;5013396;28;21708;-67
2021/07/12 07:27:42;;;;;;;1.43;1.33;;;;;;;18.19;83.58;95250.97;4995903;28;20242;-67
2021/07/12 07:30:13;;;;;;;1.20;1.20;;;;;;;18.28;83.53;95246.84;4996275;28;20246;-66
2021/07/12 07:32:42;;;;;;;1.50;1.50;;;;;;;18.52;83.57;95244.03;4992976;28;20309;-66
2021/07/12 07:35:11;;;;;;;1.70;1.60;;;;;;;18.73;82.89;95241.44;5002189;28;20766;-67
2021/07/12 07:37:39;;;;;;;1.87;1.77;;;;;;;18.85;81.68;95238.69;4993458;28;20319;-66
2021/07/12 07:40:09;;;;;;;1.87;1.77;;;;;;;18.92;81.10;95233.97;4980637;28;20216;-67
2021/07/12 07:42:37;;;;;;;1.63;1.53;;;;;;;18.86;81.72;95228.81;4993656;28;20724;-66
2021/07/12 07:45:08;;;;;;;1.70;1.60;;;;;;;18.96;82.48;95224.41;4999471;28;20303;-68
2021/07/12 07:47:38;;;;;;;1.83;1.73;;;;;;;19.10;81.67;95229.41;4991262;28;20543;-66
2021/07/12 07:50:20;;;;;;;1.97;1.87;;;;;;;19.12;81.55;95220.09;4990263;28;20686;-67
2021/07/12 07:52:49;;;;;;;1.90;1.80;;;;;;;19.24;80.84;95215.41;4992609;28;20639;-65
2021/07/12 07:55:18;;;;;;;2.20;2.10;;;;;;;19.10;82.49;95216.81;4990677;28;20298;-67
2021/07/12 07:57:46;;;;;;;2.00;1.90;;;;;;;19.10;82.54;95221.38;4989594;28;20231;-67
2021/07/12 08:00:16;;;;;;;2.17;2.07;;;;;;;19.43;81.08;95223.13;4995977;28;20697;-67
2021/07/12 08:02:46;;;;;;;10.10;1.87;;;;;;;19.67;80.73;95207.66;5002912;28;20216;-67
2021/07/12 08:05:14;;;;;;;1.40;1.30;;;;;;;19.89;80.09;95211.09;4998163;28;20306;-67
2021/07/12 08:07:42;;;;;;;1.73;1.63;;;;;;;20.05;78.62;95210.16;4995045;28;20263;-65
2021/07/12 08:10:14;;;;;;;1.60;1.50;;;;;;;20.15;77.85;95204.91;4998852;28;20255;-67
2021/07/12 08:12:42;;;;;;;1.13;1.13;;;;;;;20.34;77.14;95207.19;5001182;28;20244;-67
2021/07/12 08:15:13;;;;;;;1.63;1.53;;;;;;;20.56;78.27;95202.56;4992389;28;20258;-67
2021/07/12 08:17:42;;;;;;;1.07;1.07;;;;;;;20.64;75.79;95207.44;4993327;28;20233;-66
2021/07/12 08:20:13;;;;;;;1.70;1.53;;;;;;;20.68;75.66;95199.72;4995462;28;20244;-65
2021/07/12 08:22:49;;;;;;;1.00;1.00;;;;;;;20.85;77.02;95200.38;4999325;28;20303;-67
2021/07/12 08:25:18;;;;;;;1.00;1.00;;;;;;;21.16;77.05;95189.78;5007185;28;20227;-66
2021/07/12 08:27:46;;;;;;;3.80;1.80;;;;;;;21.33;75.61;95187.75;5008807;28;20249;-65
2021/07/12 08:30:16;;;;;;;0.90;0.90;;;;;;;21.52;74.74;95185.38;5017516;28;20712;-66
2021/07/12 08:32:45;;;;;;;1.40;1.03;;;;;;;21.72;73.17;95174.69;5000012;28;20584;-67
2021/07/12 08:35:15;;;;;;;0.67;0.67;;;;;;;21.82;73.01;95177.41;4986804;28;20864;-66
2021/07/12 08:37:49;;;;;;;0.77;0.77;;;;;;;21.89;71.92;95179.03;4984196;28;20264;-66
2021/07/12 08:40:18;;;;;;;0.57;0.57;;;;;;;22.00;71.13;95170.72;4995118;28;20421;-67
2021/07/12 08:42:47;;;;;;;0.83;0.83;;;;;;;22.05;70.90;95159.97;5006611;28;20954;-66
2021/07/12 08:45:15;;;;;;;0.73;0.73;;;;;;;22.28;71.54;95161.34;5011267;28;20282;-66
2021/07/12 08:47:44;;;;;;;1.00;0.80;;;;;;;22.38;70.55;95155.97;5018649;28;20255;-65
2021/07/12 08:50:14;;;;;;;0.57;0.57;;;;;;;22.61;70.75;95148.41;5012927;28;20240;-67
2021/07/12 08:52:43;;;;;;;1.63;0.87;;;;;;;22.80;69.63;95157.53;5000503;28;21018;-67
2021/07/12 08:55:12;;;;;;;1.13;1.13;;;;;;;22.92;69.81;95143.78;4999638;28;20636;-67
2021/07/12 08:57:41;;;;;;;0.60;0.60;;;;;;;23.19;70.04;95148.81;4996222;28;20673;-67
2021/07/12 09:00:10;;;;;;;0.87;0.87;;;;;;;23.39;69.14;95148.72;4992995;28;20287;-67
2021/07/12 09:02:38;;;;;;;0.70;0.70;;;;;;;23.63;67.93;95145.41;4985845;28;20244;-66
2021/07/12 09:05:09;;;;;;;2.47;1.15;;;;;;;23.94;67.39;95143.31;4990530;28;20278;-68
2021/07/12 09:07:39;;;;;;;0.80;0.80;;;;;;;24.15;65.32;95138.59;4992373;28;20345;-66
2021/07/12 09:10:11;;;;;;;0.80;0.80;;;;;;;24.22;64.18;95139.06;4997028;28;20231;-66
2021/07/12 09:12:42;;;;;;;0.82;0.80;;;;;;;24.38;64.03;95143.25;4992759;28;20314;-67
2021/07/12 09:15:11;;;;;;;1.70;1.00;;;;;;;24.46;62.48;95139.16;4997903;28;20786;-68
2021/07/12 09:17:41;;;;;;;1.75;0.52;;;;;;;24.63;63.26;95134.94;5009548;28;20248;-67
2021/07/12 09:20:12;;;;;;;1.13;1.13;;;;;;;24.45;61.24;95146.44;4999495;28;20623;-66
2021/07/12 09:22:42;;;;;;;0.82;0.82;;;;;;;24.57;62.27;95138.78;4995121;28;20479;-67
2021/07/12 09:25:12;;;;;;;1.08;1.08;;;;;;;24.72;61.88;95140.53;4994348;28;20255;-67
2021/07/12 09:27:42;;;;;;;1.00;1.00;;;;;;;25.02;61.03;95134.00;4995904;28;20265;-67
2021/07/12 09:30:12;;;;;;;1.55;0.82;;;;;;;25.22;61.02;95135.66;4996945;28;20240;-67
2021/07/12 09:32:42;;;;;;;0.90;0.90;;;;;;;25.26;60.19;95135.91;5004075;28;20323;-70
2021/07/12 09:35:14;;;;;;;1.63;1.50;;;;;;;25.31;58.95;95141.22;5006299;28;20311;-70
2021/07/12 09:37:45;;;;;;;1.40;1.33;;;;;;;25.39;59.78;95136.00;5005170;28;20423;-70
2021/07/12 09:40:15;;;;;;;0.93;0.93;;;;;;;25.66;60.06;95135.38;4993053;28;20595;-69
2021/07/12 09:42:45;;;;;;;0.68;0.68;;;;;;;25.89;59.54;95132.94;5011239;28;20466;-70
2021/07/12 09:45:15;;;;;;;1.30;1.30;;;;;;;25.96;60.45;95127.94;5004493;28;20524;-70
2021/07/12 09:47:46;;;;;;;1.80;1.33;;;;;;;26.14;59.77;95123.59;4999065;28;20243;-69
2021/07/12 09:50:16;;;;;;;0.82;0.82;;;;;;;26.35;59.37;95120.28;4997597;28;20308;-70
2021/07/12 09:52:47;;;;;;;1.73;1.00;;;;;;;26.36;59.23;95124.59;5017042;28;20541;-69
2021/07/12 09:55:27;;;;;;;1.73;1.33;;;;;;;26.42;58.03;95122.59;5017726;28;20224;-70
2021/07/12 09:58:07;;;;;;;0.70;0.70;;;;;;;26.66;59.53;95114.34;5005330;28;20228;-70
2021/07/12 10:00:35;;;;;;;0.90;0.90;;;;;;;26.84;59.76;95121.59;4999708;28;20247;-70
2021/07/12 10:03:04;;;;;;;1.77;1.40;;;;;;;26.92;56.79;95111.97;5002654;28;20285;-70
2021/07/12 10:05:32;;;;;;;1.38;1.38;;;;;;;26.93;57.47;95108.97;5018948;28;20622;-70
2021/07/12 10:08:03;;;;;;;1.08;1.08;;;;;;;26.93;58.31;95108.97;4997817;28;20886;-70
2021/07/12 10:10:31;;;;;;;2.85;0.98;;;;;;;27.00;58.75;95096.94;4999085;28;20253;-70
2021/07/12 10:12:59;;;;;;;3.00;1.08;;;;;;;27.27;58.09;95101.56;5007110;28;20251;-70
2021/07/12 10:15:28;;;;;;;1.02;1.00;;;;;;;27.41;56.84;95100.44;4993273;28;20600;-70
2021/07/12 10:17:57;;;;;;;1.20;1.10;;;;;;;27.58;57.14;95101.69;4996153;28;20362;-69
2021/07/12 10:20:27;;;;;;;1.40;1.30;;;;;;;27.71;56.94;95095.50;4989860;28;20240;-70
2021/07/12 10:22:57;;;;;;;2.85;1.10;;;;;;;27.87;55.87;95088.59;4991829;28;20242;-70
2021/07/12 10:25:29;;;;;;;0.95;0.90;;;;;;;27.91;55.61;95084.16;5003332;28;20660;-70
2021/07/12 10:27:59;;;;;;;2.30;2.15;;;;;;;28.01;55.82;95080.41;5007564;28;20290;-69
2021/07/12 10:30:30;;;;;;;1.50;1.40;;;;;;;28.00;55.29;95076.91;5021995;28;20246;-69
2021/07/12 10:33:00;;;;;;;2.30;2.15;;;;;;;27.98;56.19;95073.69;5006118;28;20229;-70
2021/07/12 10:35:42;;;;;;;0.98;0.98;;;;;;;28.37;56.25;95071.41;4999204;28;20248;-70
2021/07/12 10:38:13;;;;;;;0.88;0.88;;;;;;;28.67;54.12;95061.66;4995825;28;20720;-70
2021/07/12 10:40:51;;;;;;;1.33;1.23;;;;;;;28.81;52.99;95063.16;4982987;28;20316;-70
2021/07/12 10:43:48;;;;;;;1.23;1.13;;;;;;;29.00;54.40;95054.78;5003141;28;20277;-69
2021/07/12 10:46:39;;;;;;;0.90;0.90;;;;;;;29.18;54.17;95053.72;4982420;28;20784;-70
2021/07/12 10:49:38;;;;;;;1.27;1.17;;;;;;;28.83;53.31;95044.63;4984855;28;20223;-70
2021/07/12 10:52:07;;;;;;;1.15;1.15;;;;;;;28.84;54.08;95050.88;4993332;28;20688;-70
2021/07/12 10:55:00;;;;;;;1.25;0.98;;;;;;;29.08;54.23;95040.44;5011231;28;20212;-70
2021/07/12 10:57:30;;;;;;;4.25;2.30;;;;;;;29.16;52.87;95036.91;5008294;28;20250;-70
2021/07/12 11:00:11;;;;;;;1.08;1.02;;;;;;;29.11;51.85;95037.09;4992958;28;20244;-69
2021/07/12 11:02:40;;;;;;;1.48;1.42;;;;;;;28.97;52.00;95041.03;4997748;28;20223;-70
2021/07/12 11:05:09;;;;;;;0.85;0.85;;;;;;;28.83;52.12;95041.13;4999619;28;20669;-70
2021/07/12 11:07:41;;;;;;;1.52;1.13;;;;;;;28.93;52.59;95032.72;4998207;28;20285;-70
2021/07/12 11:10:26;;;;;;;0.82;0.82;;;;;;;29.08;53.76;95024.13;4978971;28;20516;-69
2021/07/12 11:13:00;;;;;;;1.25;1.00;;;;;;;29.10;54.00;95023.81;5005439;28;20243;-70
2021/07/12 11:15:31;;;;;;;2.65;0.98;;;;;;;29.17;54.01;95026.88;4995100;28;20283;-67
2021/07/12 11:18:10;;;;;;;0.70;0.70;;;;;;;29.28;52.71;95038.25;5000117;28;20333;-67
2021/07/12 11:21:04;;;;;;;1.27;1.23;;;;;;;29.15;52.41;95039.94;4986980;28;20709;-67
2021/07/12 11:23:49;;;;;;;0.85;0.85;;;;;;;29.04;53.59;95041.38;4991909;28;20283;-67
2021/07/12 11:26:54;;;;;;;0.85;0.85;;;;;;;28.99;53.00;95042.34;4994153;28;20251;-67
2021/07/12 11:29:34;;;;;;;1.17;0.95;;;;;;;28.85;54.20;95041.59;5010922;28;20347;-67
2021/07/12 11:32:14;;;;;;;1.05;1.05;;;;;;;29.02;54.58;95030.03;4999167;28;20313;-66
2021/07/12 11:34:54;;;;;;;1.10;1.10;;;;;;;28.96;50.41;95042.94;4990647;28;20355;-66
2021/07/12 11:37:25;;;;;;;0.85;0.85;;;;;;;29.02;52.56;95030.81;4990459;28;20820;-66
2021/07/12 11:39:55;;;;;;;1.10;0.70;;;;;;;29.09;52.87;95031.16;4992454;28;20729;-68
2021/07/12 11:42:29;;;;;;;0.90;0.68;;;;;;;29.21;51.30;95030.53;5001713;28;20653;-67
2021/07/12 11:45:02;;;;;;;0.60;0.60;;;;;;;29.06;51.72;95022.84;5019697;28;20301;-69
2021/07/12 11:47:32;;;;;;;0.95;0.70;;;;;;;29.00;52.95;95021.41;5018756;28;20640;-70
2021/07/12 11:50:04;;;;;;;1.70;0.93;;;;;;;29.14;52.32;95022.84;4993230;28;20224;-69
2021/07/12 11:52:32;;;;;;;2.78;0.65;;;;;;;29.11;52.44;95012.63;4999803;28;20769;-69
2021/07/12 11:55:05;;;;;;;2.75;1.50;;;;;;;29.20;51.85;95025.44;4997716;28;20712;-69